CheckWX is a tool to help pilots better visualize weather data.  It is not intended as a substitute for an official pre-flight weather briefing.

00:10:28 UTC

KBGR METAR
Bangor International Airport
Bangor, Maine, USA
Current

17 mins ago

KBGR 182353Z 30010G18KT 10SM FEW040 BKN060 09/04 A2970 RMK AO2 SLP056 60000 T00940044 10117 20094 51025
Observed
Oct-18 @ 23:53 UTC
Wind
  • 300° at 10 KTS
  • Gusting to 18 KTS
Visibility
10 SM
Flight Rules
VFR
Cloud Levels
  • Few at 4,000' AGL
  • Broken at 6,000' AGL
Temperature
C / 48°F
Dewpoint
C / 39°F
Humidity
71%
Altimeter
29.7" Hg
Pressure
1005.72 hPa
Previous

1 hour ago

KBGR 182253Z 29006G15KT 10SM SCT055 BKN070 10/05 A2968 RMK AO2 SLP049 T01000050
Observed
Oct-18 @ 22:53 UTC
Wind
  • 290° at 6 KTS
  • Gusting to 15 KTS
Visibility
10 SM
Flight Rules
VFR
Cloud Levels
  • Scattered at 5,500' AGL
  • Broken at 7,000' AGL
Temperature
10°C / 50°F
Dewpoint
C / 41°F
Humidity
71%
Altimeter
29.68" Hg
Pressure
1005.12 hPa
Previous

2 hours ago

KBGR 182153Z 29010G18KT 10SM SCT050 BKN070 10/05 A2965 RMK AO2 SLP041 T01000050
Observed
Oct-18 @ 21:53 UTC
Wind
  • 290° at 10 KTS
  • Gusting to 18 KTS
Visibility
10 SM
Flight Rules
VFR
Cloud Levels
  • Scattered at 5,000' AGL
  • Broken at 7,000' AGL
Temperature
10°C / 50°F
Dewpoint
C / 41°F
Humidity
71%
Altimeter
29.65" Hg
Pressure
1004.02 hPa